Time;durP1;ratioP1;P1;durP2;ratioP2;P2;SDS_P1;SDS_P2;PMS_P1;PMS_P2;Temp;Humidity;BMP_temperature;BMP_pressure;BME280_temperature;BME280_humidity;BME280_pressure;Samples;Min_cycle;Max_cycle;Signal;HPM_P1;HPM_P2
2022/05/14 00:00:20;;;;;;;11.68;7.40;;;14.50;83.20;;;;;;4977879;28;20036;-56
2022/05/14 00:02:46;;;;;;;9.35;6.63;;;14.40;82.90;;;;;;4987002;28;20398;-61
2022/05/14 00:05:11;;;;;;;10.48;7.80;;;14.30;83.40;;;;;;4990921;28;20030;-57
2022/05/14 00:07:37;;;;;;;10.30;7.10;;;14.30;83.70;;;;;;4990991;28;20363;-57
2022/05/14 00:10:04;;;;;;;8.45;6.75;;;14.20;84.20;;;;;;4978333;28;20039;-57
2022/05/14 00:15:14;;;;;;;7.75;7.05;;;14.00;85.30;;;;;;4990897;28;20437;-59
2022/05/14 00:17:40;;;;;;;8.50;7.10;;;13.80;85.60;;;;;;4990775;28;20031;-56
2022/05/14 00:20:06;;;;;;;9.23;7.18;;;13.60;86.20;;;;;;4990945;28;20038;-57
2022/05/14 00:22:32;;;;;;;10.23;8.85;;;13.60;86.40;;;;;;4991162;28;20030;-56
2022/05/14 00:24:57;;;;;;;11.02;7.22;;;13.70;86.20;;;;;;4991040;28;20449;-57
2022/05/14 00:27:23;;;;;;;10.25;7.38;;;13.70;86.10;;;;;;4990780;28;20576;-56
2022/05/14 00:29:48;;;;;;;10.57;7.18;;;13.70;86.40;;;;;;4991766;28;20121;-56
2022/05/14 00:32:14;;;;;;;8.88;6.80;;;13.80;86.70;;;;;;4990452;28;20034;-60
2022/05/14 00:34:39;;;;;;;10.32;6.85;;;13.80;86.90;;;;;;4989390;28;20122;-58
2022/05/14 00:37:05;;;;;;;8.57;6.95;;;13.90;87.20;;;;;;4991024;28;20038;-59
2022/05/14 00:39:31;;;;;;;13.50;8.32;;;13.90;87.40;;;;;;4991018;28;20134;-55
2022/05/14 00:41:56;;;;;;;10.38;7.88;;;14.00;87.50;;;;;;4990968;28;20123;-54
2022/05/14 00:44:22;;;;;;;8.48;6.65;;;14.00;87.50;;;;;;4989115;28;20085;-56
2022/05/14 00:47:04;;;;;;;9.45;6.68;;;14.00;87.60;;;;;;4993225;28;20096;-59
2022/05/14 00:49:33;;;;;;;8.77;6.80;;;14.10;87.60;;;;;;4994257;28;20030;-58
2022/05/14 00:52:00;;;;;;;9.15;6.30;;;14.00;87.90;;;;;;4989895;28;20038;-53
2022/05/14 00:54:34;;;;;;;8.90;6.82;;;14.10;88.10;;;;;;4995098;28;20073;-59
2022/05/14 00:57:05;;;;;;;10.20;8.27;;;14.10;88.60;;;;;;4993487;28;20058;-56
2022/05/14 00:59:30;;;;;;;13.43;10.50;;;14.10;88.50;;;;;;4995366;28;20034;-54
2022/05/14 01:01:58;;;;;;;24.60;17.25;;;14.00;87.20;;;;;;4994525;28;20034;-57
2022/05/14 01:04:24;;;;;;;17.85;9.05;;;14.00;87.40;;;;;;4994318;28;20034;-54
2022/05/14 01:07:02;;;;;;;8.60;7.68;;;13.90;86.80;;;;;;4993738;28;20089;-59
2022/05/14 01:09:28;;;;;;;11.13;9.38;;;13.80;87.70;;;;;;4993789;28;20518;-57
2022/05/14 01:11:55;;;;;;;14.50;10.68;;;13.70;87.20;;;;;;4994585;28;20590;-58
2022/05/14 01:14:21;;;;;;;16.90;12.07;;;13.70;88.00;;;;;;4993579;28;20058;-59
2022/05/14 01:16:47;;;;;;;15.43;11.02;;;13.70;88.00;;;;;;4994196;28;20030;-60
2022/05/14 01:19:13;;;;;;;13.52;11.02;;;13.60;88.40;;;;;;4993921;28;20533;-57
2022/05/14 01:22:01;;;;;;;13.20;9.77;;;13.60;89.10;;;;;;4994275;28;20042;-58
2022/05/14 01:27:28;;;;;;;9.32;8.13;;;13.50;90.10;;;;;;4993922;28;20026;-56
2022/05/14 01:29:54;;;;;;;8.73;7.45;;;13.50;90.20;;;;;;4993846;28;20030;-57
2022/05/14 01:32:20;;;;;;;10.05;7.82;;;13.40;90.50;;;;;;4976304;28;20069;-60
2022/05/14 01:34:45;;;;;;;10.32;8.57;;;13.50;90.40;;;;;;4994116;28;20380;-61
2022/05/14 01:37:11;;;;;;;11.68;8.30;;;13.50;90.10;;;;;;4993900;28;20507;-53
2022/05/14 01:39:37;;;;;;;11.70;8.20;;;13.40;90.20;;;;;;4994116;28;20076;-55
2022/05/14 01:42:06;;;;;;;10.77;7.38;;;13.40;90.10;;;;;;4993018;28;20038;-55
2022/05/14 01:44:31;;;;;;;12.20;8.55;;;13.50;89.40;;;;;;4992962;28;20038;-59
2022/05/14 01:46:57;;;;;;;9.43;8.27;;;13.40;88.30;;;;;;4993386;28;20395;-55
2022/05/14 01:49:23;;;;;;;10.30;8.43;;;13.30;88.60;;;;;;4993746;28;20114;-58
2022/05/14 01:51:48;;;;;;;12.10;8.38;;;13.20;88.90;;;;;;4991988;28;20403;-59
2022/05/14 01:54:14;;;;;;;9.43;8.50;;;13.10;89.80;;;;;;4993175;28;20038;-59
2022/05/14 01:56:40;;;;;;;11.98;8.95;;;13.00;89.90;;;;;;4992281;28;20049;-56
2022/05/14 01:59:06;;;;;;;11.32;9.45;;;12.90;90.50;;;;;;4992828;28;20102;-59
2022/05/14 02:01:34;;;;;;;9.07;8.27;;;12.80;90.40;;;;;;4994181;28;20073;-54
2022/05/14 02:04:09;;;;;;;9.32;8.15;;;12.70;90.60;;;;;;4992822;28;20030;-59
2022/05/14 02:06:36;;;;;;;10.82;8.50;;;12.50;91.00;;;;;;4993642;28;20038;-55
2022/05/14 02:09:04;;;;;;;11.00;8.73;;;12.50;91.20;;;;;;4993833;28;20046;-54
2022/05/14 02:11:29;;;;;;;9.00;8.20;;;12.50;91.20;;;;;;4993340;28;20368;-57
2022/05/14 02:13:55;;;;;;;11.60;8.70;;;12.60;91.10;;;;;;4993011;28;20042;-58
2022/05/14 02:16:21;;;;;;;11.50;8.70;;;12.60;91.10;;;;;;4993059;28;20090;-58
2022/05/14 02:18:47;;;;;;;9.32;7.93;;;12.70;91.20;;;;;;4993035;28;20126;-57
2022/05/14 02:21:13;;;;;;;11.18;7.88;;;12.60;91.30;;;;;;4993233;28;20069;-57
2022/05/14 02:23:39;;;;;;;12.57;8.48;;;12.70;91.20;;;;;;4992818;28;20126;-57
2022/05/14 02:26:08;;;;;;;11.90;7.68;;;12.60;91.30;;;;;;4992474;28;20092;-57
2022/05/14 02:28:34;;;;;;;11.65;8.65;;;12.60;91.20;;;;;;4992522;28;20499;-54
2022/05/14 02:31:00;;;;;;;15.00;10.70;;;12.30;91.50;;;;;;4993358;28;20117;-55
2022/05/14 02:33:26;;;;;;;9.00;7.82;;;12.40;91.80;;;;;;4993088;28;20430;-58
2022/05/14 02:35:52;;;;;;;9.13;8.10;;;12.50;91.20;;;;;;4992514;28;20479;-56
2022/05/14 02:38:18;;;;;;;8.68;7.78;;;12.60;91.40;;;;;;4992313;28;20130;-57
2022/05/14 02:40:44;;;;;;;10.57;8.15;;;12.70;91.00;;;;;;4992598;28;20046;-58
2022/05/14 02:43:10;;;;;;;9.75;7.70;;;12.80;91.10;;;;;;4990032;28;20514;-58
2022/05/14 02:45:36;;;;;;;11.52;8.25;;;12.80;91.20;;;;;;4992140;28;20104;-56
2022/05/14 02:48:02;;;;;;;11.60;7.78;;;12.90;91.00;;;;;;4990398;28;20486;-58
2022/05/14 02:50:27;;;;;;;8.98;7.90;;;13.00;91.10;;;;;;4989336;28;20030;-55
2022/05/14 02:52:53;;;;;;;9.02;8.13;;;13.00;91.00;;;;;;4990960;28;20019;-55
2022/05/14 02:55:19;;;;;;;11.07;8.70;;;13.00;90.90;;;;;;4990931;28;20105;-52
2022/05/14 02:57:45;;;;;;;10.48;8.63;;;13.00;91.00;;;;;;4991580;28;20033;-56
2022/05/14 03:00:15;;;;;;;10.38;8.40;;;13.00;90.90;;;;;;4990992;28;20034;-55
2022/05/14 03:02:40;;;;;;;9.30;8.40;;;13.00;90.90;;;;;;4991946;28;20894;-59
2022/05/14 03:05:06;;;;;;;9.20;7.95;;;13.00;90.80;;;;;;4973249;28;20147;-58
2022/05/14 03:07:32;;;;;;;10.05;9.02;;;13.00;90.80;;;;;;4992232;28;20026;-59
2022/05/14 03:09:58;;;;;;;18.15;12.65;;;13.00;91.00;;;;;;4992011;28;20049;-54
2022/05/14 03:12:24;;;;;;;14.95;9.30;;;12.90;91.30;;;;;;4991702;28;20057;-58
2022/05/14 03:14:50;;;;;;;9.52;8.25;;;12.80;91.50;;;;;;4991929;28;20030;-57
2022/05/14 03:17:16;;;;;;;11.68;8.10;;;12.80;91.70;;;;;;4990073;28;20390;-53
2022/05/14 03:19:42;;;;;;;11.10;7.95;;;12.80;91.70;;;;;;4991199;28;20045;-53
2022/05/14 03:22:08;;;;;;;9.93;8.25;;;12.80;91.50;;;;;;4991684;28;20061;-54
2022/05/14 03:24:36;;;;;;;9.93;8.20;;;12.80;91.50;;;;;;4991139;28;20031;-55
2022/05/14 03:27:02;;;;;;;9.02;8.02;;;12.90;91.60;;;;;;4991199;28;20026;-57
2022/05/14 03:29:28;;;;;;;13.25;8.30;;;13.00;91.50;;;;;;4991436;28;20061;-54
2022/05/14 03:31:56;;;;;;;9.10;8.10;;;13.00;91.50;;;;;;4991770;28;20113;-58
2022/05/14 03:34:21;;;;;;;9.98;7.78;;;13.10;91.40;;;;;;4991279;28;20030;-58
2022/05/14 03:36:47;;;;;;;11.93;8.30;;;13.10;91.50;;;;;;4990961;28;20046;-54
2022/05/14 03:39:13;;;;;;;8.52;7.63;;;13.10;91.60;;;;;;4991481;28;20034;-57
2022/05/14 03:41:38;;;;;;;8.57;7.30;;;13.20;91.70;;;;;;4991531;28;20061;-54
2022/05/14 03:44:05;;;;;;;8.57;7.78;;;13.20;91.70;;;;;;4987704;28;20121;-54
2022/05/14 03:46:30;;;;;;;9.00;7.60;;;13.20;91.60;;;;;;4991486;28;20044;-59
2022/05/14 03:48:56;;;;;;;12.10;8.15;;;13.30;91.60;;;;;;4989404;28;20042;-59
2022/05/14 03:51:21;;;;;;;8.90;8.00;;;13.30;91.70;;;;;;4991930;28;20057;-57
2022/05/14 03:53:47;;;;;;;10.18;8.80;;;13.20;91.80;;;;;;4989559;28;20035;-57
2022/05/14 03:56:13;;;;;;;9.75;7.65;;;13.30;92.00;;;;;;4991425;28;20045;-53
2022/05/14 03:58:39;;;;;;;8.85;8.05;;;13.20;92.30;;;;;;4991633;28;20038;-55
2022/05/14 04:01:05;;;;;;;9.65;8.65;;;13.30;92.30;;;;;;4990897;28;20166;-58
2022/05/14 04:03:33;;;;;;;10.93;8.55;;;13.20;92.20;;;;;;4984145;28;20710;-55
2022/05/14 04:06:00;;;;;;;9.98;8.10;;;13.20;92.20;;;;;;4971848;28;20147;-56
2022/05/14 04:08:26;;;;;;;8.93;8.00;;;13.30;92.30;;;;;;4982748;28;20061;-57
2022/05/14 04:10:52;;;;;;;12.35;8.07;;;13.30;92.10;;;;;;4972130;28;20034;-53
2022/05/14 04:13:18;;;;;;;11.48;9.30;;;13.40;91.90;;;;;;4977810;28;20037;-54
2022/05/14 04:15:43;;;;;;;9.65;8.55;;;13.40;91.40;;;;;;4991200;28;20141;-56
2022/05/14 04:18:09;;;;;;;13.32;8.38;;;13.40;91.50;;;;;;4989951;28;20050;-57
2022/05/14 04:20:36;;;;;;;14.68;8.93;;;13.30;91.50;;;;;;4991707;28;20505;-53
2022/05/14 04:23:03;;;;;;;11.75;7.88;;;13.30;91.40;;;;;;4994467;28;20462;-56
2022/05/14 04:25:28;;;;;;;16.13;9.10;;;13.20;91.50;;;;;;4994829;28;20395;-58
2022/05/14 04:27:54;;;;;;;15.00;9.20;;;13.20;91.60;;;;;;4995087;28;20045;-53
2022/05/14 04:30:19;;;;;;;14.63;9.00;;;13.10;91.90;;;;;;4995244;28;20030;-57
2022/05/14 04:32:46;;;;;;;16.15;9.18;;;13.00;92.20;;;;;;4995270;28;20495;-54
2022/05/14 04:35:14;;;;;;;12.48;9.27;;;12.90;92.90;;;;;;4994982;28;20030;-58
2022/05/14 04:37:40;;;;;;;17.30;10.75;;;12.80;93.30;;;;;;4995792;28;20034;-55
2022/05/14 04:40:08;;;;;;;15.18;9.02;;;12.80;93.10;;;;;;4995750;28;20433;-58
2022/05/14 04:42:34;;;;;;;12.77;9.38;;;12.80;93.10;;;;;;4995350;28;20038;-56
2022/05/14 04:44:59;;;;;;;16.20;8.73;;;12.90;93.10;;;;;;4994704;28;20402;-55
2022/05/14 04:47:25;;;;;;;12.82;9.00;;;12.90;93.10;;;;;;4994309;28;20043;-52
2022/05/14 04:49:51;;;;;;;10.77;8.77;;;12.90;93.30;;;;;;4995039;28;20767;-58
2022/05/14 04:52:17;;;;;;;10.13;8.93;;;12.90;93.20;;;;;;4994264;28;20038;-56
2022/05/14 04:54:43;;;;;;;11.18;8.90;;;12.80;93.30;;;;;;4994558;28;20061;-54
2022/05/14 04:57:09;;;;;;;15.68;9.10;;;12.70;93.50;;;;;;4994032;28;20393;-58
2022/05/14 04:59:36;;;;;;;10.40;8.38;;;12.70;93.60;;;;;;4994292;28;20562;-55
2022/05/14 05:04:48;;;;;;;12.38;9.55;;;12.80;93.40;;;;;;4978482;28;20031;-61
2022/05/14 05:07:13;;;;;;;12.23;9.00;;;12.80;93.40;;;;;;4993547;28;20494;-56
2022/05/14 05:09:39;;;;;;;10.68;9.57;;;12.90;93.40;;;;;;4994249;28;20038;-55
2022/05/14 05:12:05;;;;;;;10.50;9.15;;;12.90;93.60;;;;;;4994533;28;20030;-58
2022/05/14 05:14:31;;;;;;;10.40;8.73;;;12.90;93.70;;;;;;4994071;28;20042;-53
2022/05/14 05:16:57;;;;;;;14.80;9.43;;;13.00;93.80;;;;;;4994924;28;20042;-56
2022/05/14 05:19:23;;;;;;;10.48;8.57;;;13.10;93.90;;;;;;4994949;28;20054;-56
2022/05/14 05:21:49;;;;;;;9.73;8.60;;;13.30;93.40;;;;;;4995598;28;20038;-57
2022/05/14 05:24:15;;;;;;;10.82;8.82;;;13.50;93.30;;;;;;4994186;28;20266;-52
2022/05/14 05:26:41;;;;;;;9.75;8.85;;;13.60;93.20;;;;;;4993906;28;20031;-55
2022/05/14 05:29:07;;;;;;;10.02;8.98;;;13.70;92.90;;;;;;4993803;28;20441;-55
2022/05/14 05:31:34;;;;;;;9.88;8.88;;;13.70;93.00;;;;;;4992692;28;20030;-56
2022/05/14 05:34:01;;;;;;;12.00;9.52;;;13.80;93.00;;;;;;4993464;28;20092;-55
2022/05/14 05:36:26;;;;;;;11.55;9.43;;;13.70;93.10;;;;;;4993918;28;20053;-57
2022/05/14 05:38:52;;;;;;;11.25;9.02;;;13.80;93.00;;;;;;4994462;28;20061;-55
2022/05/14 05:41:18;;;;;;;10.55;9.45;;;13.90;92.90;;;;;;4994609;28;20038;-54
2022/05/14 05:43:44;;;;;;;14.52;9.45;;;14.00;92.80;;;;;;4993313;28;20045;-57
2022/05/14 05:46:11;;;;;;;10.93;8.68;;;14.10;92.80;;;;;;4992693;28;20030;-60
2022/05/14 05:48:37;;;;;;;11.90;9.60;;;14.20;92.90;;;;;;4994050;28;20027;-59
2022/05/14 05:51:03;;;;;;;13.00;9.23;;;14.40;92.30;;;;;;4993687;28;20065;-57
2022/05/14 05:58:58;;;;;;;10.30;9.18;;;14.60;92.60;;;;;;4993851;28;20041;-54
2022/05/14 06:01:24;;;;;;;9.95;8.95;;;14.70;92.10;;;;;;4993831;28;20068;-52
2022/05/14 06:03:51;;;;;;;12.82;9.77;;;14.60;92.30;;;;;;4991674;28;20050;-52
2022/05/14 06:06:17;;;;;;;10.50;8.98;;;14.70;92.50;;;;;;4993034;28;20076;-59
2022/05/14 06:08:43;;;;;;;12.57;9.65;;;14.70;91.90;;;;;;4993405;28;20525;-58
2022/05/14 06:11:09;;;;;;;16.00;9.55;;;14.90;91.70;;;;;;4993281;28;20034;-61
2022/05/14 06:13:34;;;;;;;15.10;9.43;;;15.00;91.60;;;;;;4973722;28;20038;-58
2022/05/14 06:16:00;;;;;;;12.65;9.30;;;15.20;91.30;;;;;;4974048;28;20043;-58
2022/05/14 06:18:26;;;;;;;15.10;10.02;;;15.20;91.30;;;;;;4992781;28;20042;-57
2022/05/14 06:20:53;;;;;;;12.65;9.25;;;15.20;91.40;;;;;;4993499;28;20038;-55
2022/05/14 06:23:19;;;;;;;13.80;9.13;;;15.20;91.60;;;;;;4991410;28;20520;-58
2022/05/14 06:25:45;;;;;;;11.98;8.73;;;15.20;92.00;;;;;;4993098;28;20030;-58
2022/05/14 06:28:11;;;;;;;10.98;9.27;;;15.40;91.40;;;;;;4992869;28;20512;-60
2022/05/14 06:30:41;;;;;;;10.40;8.80;;;15.60;91.40;;;;;;4993249;28;20034;-55
2022/05/14 06:33:07;;;;;;;11.63;9.13;;;15.60;91.10;;;;;;4992180;28;20084;-57
2022/05/14 06:35:35;;;;;;;13.63;8.50;;;15.60;91.10;;;;;;4992797;28;20117;-55
2022/05/14 06:38:01;;;;;;;10.75;8.25;;;15.80;90.40;;;;;;4992955;28;20026;-57
2022/05/14 06:40:26;;;;;;;13.93;8.45;;;15.70;90.60;;;;;;4992317;28;20037;-58
2022/05/14 06:42:53;;;;;;;16.17;8.95;;;15.80;90.40;;;;;;4991663;28;20407;-55
2022/05/14 06:45:19;;;;;;;12.60;8.75;;;15.70;90.70;;;;;;4991853;28;20057;-60
2022/05/14 06:47:44;;;;;;;12.27;7.32;;;15.70;90.00;;;;;;4992574;28;20076;-55
2022/05/14 06:50:10;;;;;;;11.05;7.85;;;15.80;89.80;;;;;;4992119;28;20030;-55
2022/05/14 06:52:37;;;;;;;10.98;7.60;;;15.80;89.60;;;;;;4991997;28;20030;-55
2022/05/14 06:55:03;;;;;;;15.10;6.80;;;15.90;88.80;;;;;;4992719;28;20699;-54
2022/05/14 06:57:31;;;;;;;8.55;6.32;;;15.80;88.30;;;;;;4991267;28;20129;-54
2022/05/14 06:59:57;;;;;;;11.05;7.07;;;15.90;88.60;;;;;;4992463;28;20026;-58
2022/05/14 07:02:25;;;;;;;11.55;7.10;;;16.10;88.80;;;;;;4991635;28;20038;-57
2022/05/14 07:07:35;;;;;;;14.43;7.22;;;16.20;88.80;;;;;;4992186;28;20037;-61
2022/05/14 07:10:02;;;;;;;15.20;7.30;;;16.40;87.70;;;;;;4993131;28;20104;-61
2022/05/14 07:12:28;;;;;;;13.90;6.85;;;16.60;87.20;;;;;;4992745;28;20034;-61
2022/05/14 07:14:54;;;;;;;11.15;6.57;;;16.60;87.30;;;;;;4992160;28;20030;-59
2022/05/14 07:17:20;;;;;;;11.18;6.30;;;16.70;86.60;;;;;;4991965;28;20029;-58
2022/05/14 07:19:46;;;;;;;18.63;6.97;;;16.70;85.10;;;;;;4992039;28;20196;-58
2022/05/14 07:22:14;;;;;;;11.73;6.93;;;16.60;85.60;;;;;;4992247;28;20541;-61
2022/05/14 07:24:39;;;;;;;11.52;7.60;;;16.60;84.90;;;;;;4990563;28;20522;-61
2022/05/14 07:27:10;;;;;;;14.75;6.72;;;16.70;85.50;;;;;;4991829;28;20039;-66
2022/05/14 07:29:35;;;;;;;12.98;7.72;;;16.60;85.60;;;;;;4992357;28;20042;-60
2022/05/14 07:32:01;;;;;;;11.43;7.15;;;16.60;84.40;;;;;;4992313;28;20034;-58
2022/05/14 07:34:27;;;;;;;7.93;6.70;;;16.60;84.90;;;;;;4991678;28;20038;-61
2022/05/14 07:37:05;;;;;;;13.63;7.55;;;16.60;85.50;;;;;;4990423;28;20482;-59
2022/05/14 07:39:35;;;;;;;12.68;7.45;;;16.50;84.30;;;;;;4992137;28;20505;-60
2022/05/14 07:42:04;;;;;;;14.07;7.53;;;16.40;84.70;;;;;;4991685;28;20031;-60
2022/05/14 07:44:37;;;;;;;12.43;7.78;;;16.60;84.60;;;;;;4991232;28;20027;-60
2022/05/14 07:47:03;;;;;;;18.67;8.13;;;16.70;84.90;;;;;;4987383;28;20111;-63
2022/05/14 07:49:29;;;;;;;14.20;7.68;;;16.70;84.70;;;;;;4991364;28;20418;-60
2022/05/14 07:51:56;;;;;;;13.73;8.55;;;16.80;84.70;;;;;;4989703;28;20026;-60
2022/05/14 07:54:23;;;;;;;19.90;9.68;;;16.90;83.50;;;;;;4988343;28;20030;-62
2022/05/14 07:56:48;;;;;;;12.68;8.27;;;16.90;84.10;;;;;;4990274;28;20038;-63
2022/05/14 07:59:15;;;;;;;12.23;7.47;;;16.90;83.50;;;;;;4990585;28;20372;-59
2022/05/14 08:01:41;;;;;;;11.80;7.43;;;17.00;82.40;;;;;;4991132;28;20463;-63
2022/05/14 08:04:07;;;;;;;13.82;7.10;;;17.00;82.70;;;;;;4991205;28;20057;-63
2022/05/14 08:06:33;;;;;;;13.77;6.53;;;17.00;81.30;;;;;;4990744;28;20023;-64
2022/05/14 08:08:59;;;;;;;8.45;6.40;;;17.20;81.10;;;;;;4989417;28;20049;-62
2022/05/14 08:11:26;;;;;;;10.63;6.82;;;17.40;80.40;;;;;;4991439;28;20041;-63
2022/05/14 08:13:54;;;;;;;12.00;6.63;;;17.30;79.90;;;;;;4990923;28;20034;-62
2022/05/14 08:16:23;;;;;;;12.23;6.30;;;17.40;81.40;;;;;;4991135;28;20031;-59
2022/05/14 08:18:49;;;;;;;13.77;5.80;;;17.40;80.90;;;;;;4988313;28;20038;-55
2022/05/14 08:26:43;;;;;;;15.65;6.10;;;17.40;79.60;;;;;;4990585;28;20043;-63
2022/05/14 08:29:09;;;;;;;10.45;5.63;;;17.50;78.70;;;;;;4991209;28;20034;-60
2022/05/14 08:31:34;;;;;;;12.02;5.03;;;17.70;79.00;;;;;;4991932;28;20418;-59
2022/05/14 08:34:00;;;;;;;9.77;5.38;;;17.90;77.70;;;;;;4985422;28;20030;-62
2022/05/14 08:36:26;;;;;;;12.85;5.07;;;17.90;77.30;;;;;;4989462;28;20035;-57
2022/05/14 08:38:54;;;;;;;12.80;5.28;;;18.00;77.00;;;;;;4991150;28;20030;-58
2022/05/14 08:41:20;;;;;;;10.43;4.97;;;18.10;76.30;;;;;;4991720;28;20034;-57
2022/05/14 08:43:50;;;;;;;12.50;6.22;;;18.00;76.00;;;;;;4991060;28;20049;-55
2022/05/14 08:46:19;;;;;;;13.25;5.85;;;18.00;75.90;;;;;;4991312;28;20035;-55
2022/05/14 08:48:50;;;;;;;11.00;5.15;;;18.10;76.00;;;;;;4989434;28;20104;-63
2022/05/14 08:51:30;;;;;;;13.68;5.15;;;18.00;75.70;;;;;;4989807;28;20026;-55
2022/05/14 08:53:55;;;;;;;11.75;5.05;;;18.20;75.70;;;;;;4988839;28;20113;-55
2022/05/14 08:56:21;;;;;;;17.83;5.10;;;18.20;74.80;;;;;;4990228;28;20503;-56
2022/05/14 08:59:08;;;;;;;9.48;4.50;;;18.10;75.00;;;;;;4991097;28;20690;-57
2022/05/14 09:01:38;;;;;;;11.18;4.97;;;18.20;76.40;;;;;;4990867;28;20037;-55
2022/05/14 09:04:05;;;;;;;12.60;5.78;;;18.40;75.50;;;;;;4990476;28;20030;-60
2022/05/14 09:06:31;;;;;;;11.93;5.70;;;18.50;74.60;;;;;;4991937;28;20045;-55
2022/05/14 09:08:56;;;;;;;9.23;4.75;;;18.60;74.60;;;;;;4992770;28;20031;-59
2022/05/14 09:11:28;;;;;;;8.13;4.35;;;18.60;74.00;;;;;;4994912;28;20018;-58
2022/05/14 09:13:58;;;;;;;8.80;4.85;;;18.70;74.00;;;;;;4994378;28;20495;-59
2022/05/14 09:16:37;;;;;;;12.60;5.25;;;18.80;73.20;;;;;;4990751;28;20486;-56
2022/05/14 09:19:13;;;;;;;11.93;5.32;;;18.90;74.00;;;;;;4990141;28;20026;-58
2022/05/14 09:21:53;;;;;;;11.73;4.88;;;19.00;74.40;;;;;;4993200;28;20049;-57
2022/05/14 09:24:25;;;;;;;8.88;4.78;;;19.10;74.30;;;;;;4992787;28;20034;-57
2022/05/14 09:26:52;;;;;;;14.32;5.65;;;19.00;74.60;;;;;;4992430;28;20061;-58
2022/05/14 09:29:24;;;;;;;11.75;5.30;;;19.00;73.90;;;;;;4993732;28;20023;-55
2022/05/14 09:32:04;;;;;;;10.32;5.93;;;19.20;73.60;;;;;;4990139;28;20085;-55
2022/05/14 09:34:32;;;;;;;13.00;5.57;;;19.40;73.60;;;;;;4991998;28;20434;-56
2022/05/14 09:37:11;;;;;;;12.75;5.60;;;19.10;74.20;;;;;;4992984;28;20030;-56
2022/05/14 09:39:38;;;;;;;14.55;5.43;;;19.20;73.40;;;;;;4991980;28;20026;-57
2022/05/14 09:42:04;;;;;;;10.25;5.97;;;19.40;72.80;;;;;;4990615;28;20030;-58
2022/05/14 09:44:35;;;;;;;11.15;4.75;;;19.60;72.70;;;;;;4990384;28;20026;-59
2022/05/14 09:47:23;;;;;;;6.85;4.47;;;19.60;73.10;;;;;;4988045;28;20124;-55
2022/05/14 09:49:59;;;;;;;7.95;4.50;;;19.80;73.60;;;;;;4991944;28;20113;-58
2022/05/14 09:52:32;;;;;;;10.55;4.93;;;19.80;73.80;;;;;;4992507;28;20617;-56
2022/05/14 09:55:01;;;;;;;9.85;5.22;;;20.10;72.30;;;;;;4989477;28;20034;-60
2022/05/14 09:57:50;;;;;;;11.48;5.80;;;20.20;71.40;;;;;;4992855;28;20034;-58
2022/05/14 10:00:27;;;;;;;10.40;5.40;;;19.90;71.80;;;;;;4994049;28;20081;-60
2022/05/14 10:03:17;;;;;;;9.32;4.78;;;19.80;73.40;;;;;;4993325;28;20034;-59
2022/05/14 10:05:58;;;;;;;9.18;5.00;;;20.00;72.40;;;;;;4992549;28;20027;-57
2022/05/14 10:08:30;;;;;;;10.25;5.20;;;20.10;71.30;;;;;;4994846;28;20030;-62
2022/05/14 10:11:06;;;;;;;12.55;5.22;;;19.90;71.30;;;;;;4991434;28;20080;-59
2022/05/14 10:14:00;;;;;;;9.65;4.95;;;19.80;71.90;;;;;;4992898;28;20026;-57
2022/05/14 10:16:39;;;;;;;9.07;4.90;;;19.70;72.70;;;;;;4991913;28;20057;-58
2022/05/14 10:19:23;;;;;;;13.40;5.95;;;19.80;72.40;;;;;;4988483;28;20038;-58
2022/05/14 10:22:00;;;;;;;12.57;5.40;;;20.00;71.40;;;;;;4991673;28;20096;-58
2022/05/14 10:27:46;;;;;;;14.38;4.85;;;19.90;71.40;;;;;;4990946;28;20031;-57
2022/05/14 10:30:25;;;;;;;10.65;4.95;;;19.90;71.00;;;;;;4992614;28;20029;-56
2022/05/14 10:33:03;;;;;;;9.13;4.57;;;20.00;71.50;;;;;;4992716;28;20038;-57
2022/05/14 10:35:36;;;;;;;8.02;4.65;;;20.10;70.70;;;;;;4992053;28;20031;-58
2022/05/14 10:38:11;;;;;;;9.43;4.82;;;20.10;70.50;;;;;;4988519;28;20026;-56
2022/05/14 10:40:46;;;;;;;9.40;4.70;;;20.10;71.30;;;;;;4990929;28;20109;-55
2022/05/14 10:43:33;;;;;;;9.30;5.03;;;20.30;71.10;;;;;;4992536;28;20026;-57
2022/05/14 10:46:02;;;;;;;11.25;5.00;;;20.40;70.20;;;;;;4989825;28;20530;-57
2022/05/14 10:49:02;;;;;;;14.70;5.22;;;20.50;70.20;;;;;;4992505;28;20030;-53
2022/05/14 10:51:30;;;;;;;10.23;4.95;;;20.40;70.00;;;;;;4991468;28;20490;-58
2022/05/14 10:54:00;;;;;;;12.13;5.38;;;20.40;69.40;;;;;;4992939;28;20510;-59
2022/05/14 10:56:37;;;;;;;11.77;4.55;;;20.20;69.30;;;;;;4990623;28;20038;-58
2022/05/14 10:59:32;;;;;;;9.88;4.80;;;20.20;70.60;;;;;;4992583;28;20552;-65
2022/05/14 11:01:57;;;;;;;10.68;5.45;;;20.30;70.30;;;;;;4993077;28;20022;-57
2022/05/14 11:04:26;;;;;;;9.60;4.47;;;20.50;68.20;;;;;;4993019;28;20035;-60
2022/05/14 11:06:57;;;;;;;11.60;4.55;;;20.60;69.40;;;;;;4992066;28;20057;-58
2022/05/14 11:09:34;;;;;;;11.25;4.68;;;20.40;70.50;;;;;;4994629;28;20038;-59
2022/05/14 11:12:04;;;;;;;12.32;4.93;;;20.50;69.20;;;;;;4994281;28;20038;-56
2022/05/14 11:14:51;;;;;;;10.88;4.25;;;20.50;68.80;;;;;;4993341;28;20037;-58
2022/05/14 11:17:23;;;;;;;10.27;4.25;;;20.30;69.50;;;;;;4992992;28;20030;-58
2022/05/14 11:20:06;;;;;;;10.00;3.95;;;20.20;69.60;;;;;;5007801;28;20636;-56
2022/05/14 11:23:02;;;;;;;9.25;4.03;;;20.50;68.50;;;;;;5012558;28;20478;-56
2022/05/14 11:25:28;;;;;;;8.80;4.03;;;20.70;68.40;;;;;;5012367;28;20616;-61
2022/05/14 11:28:03;;;;;;;8.43;4.35;;;21.00;67.80;;;;;;5012657;28;20146;-57
2022/05/14 11:30:42;;;;;;;10.18;4.68;;;21.50;66.70;;;;;;5011853;28;20026;-58
2022/05/14 11:33:23;;;;;;;8.18;4.70;;;21.50;66.70;;;;;;5012214;28;20037;-58
2022/05/14 11:35:51;;;;;;;11.80;4.50;;;21.40;67.10;;;;;;5012403;28;20132;-57
2022/05/14 11:38:33;;;;;;;6.72;3.92;;;21.10;67.30;;;;;;5011832;28;20030;-58
2022/05/14 11:41:04;;;;;;;10.38;4.45;;;20.90;67.60;;;;;;5012596;28;20026;-60
2022/05/14 11:43:42;;;;;;;9.80;4.72;;;20.90;68.10;;;;;;4997895;28;20099;-60
2022/05/14 11:46:23;;;;;;;10.55;4.60;;;20.80;68.30;;;;;;4992332;28;20506;-60
2022/05/14 11:48:53;;;;;;;13.75;4.78;;;20.70;68.20;;;;;;4992438;28;20038;-58
2022/05/14 11:51:35;;;;;;;10.32;4.90;;;20.70;68.60;;;;;;4992581;28;20598;-56
2022/05/14 11:54:11;;;;;;;12.90;4.68;;;20.90;67.80;;;;;;4993414;28;20091;-58
2022/05/14 11:56:51;;;;;;;10.90;4.72;;;21.30;66.70;;;;;;4992502;28;20038;-60
2022/05/14 11:59:40;;;;;;;13.93;4.57;;;21.00;67.60;;;;;;4991781;28;20073;-57
2022/05/14 12:02:19;;;;;;;8.35;4.32;;;20.90;68.40;;;;;;4992276;28;20061;-60
2022/05/14 12:04:50;;;;;;;8.10;4.72;;;20.90;69.30;;;;;;4991735;28;20033;-60
2022/05/14 12:07:45;;;;;;;10.93;4.32;;;21.10;68.60;;;;;;4990828;28;20038;-58
2022/05/14 12:10:26;;;;;;;10.80;4.50;;;21.30;68.30;;;;;;4992456;28;20026;-58
2022/05/14 12:13:02;;;;;;;7.35;4.47;;;21.30;67.90;;;;;;4992619;28;20014;-58
2022/05/14 12:15:30;;;;;;;13.23;4.60;;;21.60;66.90;;;;;;4992686;28;20022;-61
2022/05/14 12:17:58;;;;;;;7.88;4.57;;;21.70;66.90;;;;;;4992182;28;20073;-60
2022/05/14 12:20:30;;;;;;;6.82;4.40;;;21.10;68.30;;;;;;4992879;28;20035;-56
2022/05/14 12:23:03;;;;;;;12.52;5.05;;;21.00;69.70;;;;;;4992879;28;20038;-56
2022/05/14 12:25:45;;;;;;;7.95;4.32;;;21.30;68.40;;;;;;4991117;28;20064;-58
2022/05/14 12:28:37;;;;;;;5.90;4.05;;;21.40;68.90;;;;;;4992709;28;20385;-56
2022/05/14 12:34:02;;;;;;;9.32;4.78;;;21.60;68.50;;;;;;4992196;28;20023;-56
2022/05/14 12:36:34;;;;;;;8.50;4.57;;;21.40;68.20;;;;;;4991424;28;20061;-62
2022/05/14 12:39:03;;;;;;;12.10;4.55;;;21.30;68.60;;;;;;4992086;28;20058;-61
2022/05/14 12:41:40;;;;;;;13.23;5.13;;;21.40;68.60;;;;;;4993209;28;20376;-58
2022/05/14 12:44:25;;;;;;;9.40;4.22;;;21.40;68.10;;;;;;4976952;28;20035;-60
2022/05/14 12:46:56;;;;;;;11.02;4.55;;;21.50;68.30;;;;;;4976663;28;20035;-57
2022/05/14 12:49:30;;;;;;;12.65;4.63;;;21.90;67.60;;;;;;4977044;28;20491;-60
2022/05/14 12:51:58;;;;;;;8.98;4.45;;;22.20;66.70;;;;;;4991625;28;20134;-60
2022/05/14 12:54:34;;;;;;;9.73;3.83;;;22.00;66.30;;;;;;4995972;28;20038;-59
2022/05/14 12:57:04;;;;;;;9.80;4.05;;;21.90;67.00;;;;;;4991037;28;20042;-59
2022/05/14 12:59:30;;;;;;;8.23;4.20;;;22.20;67.10;;;;;;4995328;28;20034;-58
2022/05/14 13:02:03;;;;;;;10.60;4.50;;;22.40;66.90;;;;;;4995966;28;20073;-58
2022/05/14 13:04:36;;;;;;;8.75;4.40;;;22.10;67.30;;;;;;4995224;28;20030;-58
2022/05/14 13:07:03;;;;;;;12.70;4.82;;;22.30;67.30;;;;;;4996042;28;20030;-56
2022/05/14 13:09:29;;;;;;;7.80;3.95;;;22.60;65.70;;;;;;4995321;28;20383;-58
2022/05/14 13:11:57;;;;;;;9.00;4.35;;;22.90;65.90;;;;;;4995445;28;20057;-58
2022/05/14 13:14:26;;;;;;;8.57;3.90;;;22.70;65.70;;;;;;4994521;28;20038;-60
2022/05/14 13:17:07;;;;;;;8.00;4.00;;;22.60;65.80;;;;;;4993343;28;20032;-56
2022/05/14 13:19:40;;;;;;;11.02;4.00;;;22.60;65.60;;;;;;4995598;28;20053;-60